sensor_id;sensor_type;location;lat;lon;timestamp;P1;durP1;ratioP1;P2;durP2;ratioP2
19705;SDS011;10003;52.506;4.700;2024-03-17T00:01:36;3.17;;;2.27;;
19705;SDS011;10003;52.506;4.700;2024-03-17T00:04:03;1.07;;;1.07;;
19705;SDS011;10003;52.506;4.700;2024-03-17T00:06:30;3.07;;;2.87;;
19705;SDS011;10003;52.506;4.700;2024-03-17T00:08:58;1.20;;;1.20;;
19705;SDS011;10003;52.506;4.700;2024-03-17T00:11:31;2.13;;;2.03;;
19705;SDS011;10003;52.506;4.700;2024-03-17T00:13:58;2.00;;;1.43;;
19705;SDS011;10003;52.506;4.700;2024-03-17T00:16:26;1.77;;;1.70;;
19705;SDS011;10003;52.506;4.700;2024-03-17T00:18:55;1.13;;;1.13;;
19705;SDS011;10003;52.506;4.700;2024-03-17T00:21:22;1.23;;;1.20;;
19705;SDS011;10003;52.506;4.700;2024-03-17T00:23:50;2.40;;;2.23;;
19705;SDS011;10003;52.506;4.700;2024-03-17T00:26:18;1.00;;;1.00;;
19705;SDS011;10003;52.506;4.700;2024-03-17T00:28:45;3.30;;;2.67;;
19705;SDS011;10003;52.506;4.700;2024-03-17T00:31:16;5.03;;;1.70;;
19705;SDS011;10003;52.506;4.700;2024-03-17T00:33:43;2.03;;;1.93;;
19705;SDS011;10003;52.506;4.700;2024-03-17T00:36:12;3.70;;;1.40;;
19705;SDS011;10003;52.506;4.700;2024-03-17T00:38:38;8.37;;;7.87;;
19705;SDS011;10003;52.506;4.700;2024-03-17T00:41:06;2.03;;;1.93;;
19705;SDS011;10003;52.506;4.700;2024-03-17T00:43:33;4.73;;;2.50;;
19705;SDS011;10003;52.506;4.700;2024-03-17T00:46:02;2.37;;;2.20;;
19705;SDS011;10003;52.506;4.700;2024-03-17T00:48:29;1.23;;;1.23;;
19705;SDS011;10003;52.506;4.700;2024-03-17T00:50:57;3.67;;;1.10;;
19705;SDS011;10003;52.506;4.700;2024-03-17T00:53:24;0.90;;;0.90;;
19705;SDS011;10003;52.506;4.700;2024-03-17T00:55:51;4.97;;;2.50;;
19705;SDS011;10003;52.506;4.700;2024-03-17T00:58:18;0.80;;;0.80;;
19705;SDS011;10003;52.506;4.700;2024-03-17T01:00:47;1.33;;;1.33;;
19705;SDS011;10003;52.506;4.700;2024-03-17T01:03:15;0.73;;;0.73;;
19705;SDS011;10003;52.506;4.700;2024-03-17T01:05:45;4.10;;;3.37;;
19705;SDS011;10003;52.506;4.700;2024-03-17T01:08:13;3.40;;;3.20;;
19705;SDS011;10003;52.506;4.700;2024-03-17T01:10:41;1.10;;;1.10;;
19705;SDS011;10003;52.506;4.700;2024-03-17T01:13:07;2.97;;;2.67;;
19705;SDS011;10003;52.506;4.700;2024-03-17T01:15:36;1.60;;;1.60;;
19705;SDS011;10003;52.506;4.700;2024-03-17T01:18:04;2.67;;;1.83;;
19705;SDS011;10003;52.506;4.700;2024-03-17T01:20:32;1.20;;;1.20;;
19705;SDS011;10003;52.506;4.700;2024-03-17T01:23:00;4.30;;;2.20;;
19705;SDS011;10003;52.506;4.700;2024-03-17T01:25:28;2.97;;;2.40;;
19705;SDS011;10003;52.506;4.700;2024-03-17T01:27:56;0.70;;;0.70;;
19705;SDS011;10003;52.506;4.700;2024-03-17T01:30:22;1.97;;;1.87;;
19705;SDS011;10003;52.506;4.700;2024-03-17T01:32:51;0.80;;;0.80;;
19705;SDS011;10003;52.506;4.700;2024-03-17T01:35:19;1.33;;;1.33;;
19705;SDS011;10003;52.506;4.700;2024-03-17T01:37:47;1.67;;;1.57;;
19705;SDS011;10003;52.506;4.700;2024-03-17T01:40:13;3.07;;;1.47;;
19705;SDS011;10003;52.506;4.700;2024-03-17T01:42:41;1.13;;;1.10;;
19705;SDS011;10003;52.506;4.700;2024-03-17T01:45:24;0.80;;;0.80;;
19705;SDS011;10003;52.506;4.700;2024-03-17T01:47:53;1.80;;;1.67;;
19705;SDS011;10003;52.506;4.700;2024-03-17T01:50:21;1.50;;;1.50;;
19705;SDS011;10003;52.506;4.700;2024-03-17T01:52:51;1.10;;;1.10;;
19705;SDS011;10003;52.506;4.700;2024-03-17T01:55:20;9.30;;;2.50;;
19705;SDS011;10003;52.506;4.700;2024-03-17T01:57:48;7.73;;;3.00;;
19705;SDS011;10003;52.506;4.700;2024-03-17T02:00:16;2.33;;;2.13;;
19705;SDS011;10003;52.506;4.700;2024-03-17T02:02:43;1.47;;;1.37;;
19705;SDS011;10003;52.506;4.700;2024-03-17T02:05:11;3.90;;;1.37;;
19705;SDS011;10003;52.506;4.700;2024-03-17T02:07:38;3.80;;;2.90;;
19705;SDS011;10003;52.506;4.700;2024-03-17T02:10:07;7.23;;;3.10;;
19705;SDS011;10003;52.506;4.700;2024-03-17T02:12:34;1.73;;;1.33;;
19705;SDS011;10003;52.506;4.700;2024-03-17T02:15:02;8.00;;;3.17;;
19705;SDS011;10003;52.506;4.700;2024-03-17T02:17:30;3.73;;;2.27;;
19705;SDS011;10003;52.506;4.700;2024-03-17T02:19:58;4.37;;;2.30;;
19705;SDS011;10003;52.506;4.700;2024-03-17T02:22:26;2.53;;;2.00;;
19705;SDS011;10003;52.506;4.700;2024-03-17T02:24:54;3.60;;;2.17;;
19705;SDS011;10003;52.506;4.700;2024-03-17T02:27:20;2.37;;;1.33;;
19705;SDS011;10003;52.506;4.700;2024-03-17T02:29:48;1.33;;;1.20;;
19705;SDS011;10003;52.506;4.700;2024-03-17T02:32:15;0.70;;;0.70;;
19705;SDS011;10003;52.506;4.700;2024-03-17T02:34:42;0.70;;;0.70;;
19705;SDS011;10003;52.506;4.700;2024-03-17T02:37:10;3.50;;;3.27;;
19705;SDS011;10003;52.506;4.700;2024-03-17T02:39:39;1.07;;;1.07;;
19705;SDS011;10003;52.506;4.700;2024-03-17T02:42:06;1.27;;;1.27;;
19705;SDS011;10003;52.506;4.700;2024-03-17T02:44:36;2.73;;;1.43;;
19705;SDS011;10003;52.506;4.700;2024-03-17T02:47:04;1.63;;;1.53;;
19705;SDS011;10003;52.506;4.700;2024-03-17T02:49:34;18.53;;;3.40;;
19705;SDS011;10003;52.506;4.700;2024-03-17T02:52:03;2.20;;;1.97;;
19705;SDS011;10003;52.506;4.700;2024-03-17T02:54:31;2.10;;;1.80;;
19705;SDS011;10003;52.506;4.700;2024-03-17T02:57:02;1.57;;;1.50;;
19705;SDS011;10003;52.506;4.700;2024-03-17T02:59:29;1.90;;;1.80;;
19705;SDS011;10003;52.506;4.700;2024-03-17T03:01:57;0.93;;;0.93;;
19705;SDS011;10003;52.506;4.700;2024-03-17T03:04:25;1.30;;;1.30;;
19705;SDS011;10003;52.506;4.700;2024-03-17T03:06:51;7.33;;;2.20;;
19705;SDS011;10003;52.506;4.700;2024-03-17T03:09:19;1.10;;;1.03;;
19705;SDS011;10003;52.506;4.700;2024-03-17T03:11:51;1.33;;;1.27;;
19705;SDS011;10003;52.506;4.700;2024-03-17T03:14:20;1.97;;;1.63;;
19705;SDS011;10003;52.506;4.700;2024-03-17T03:16:48;7.43;;;2.00;;
19705;SDS011;10003;52.506;4.700;2024-03-17T03:19:16;1.40;;;1.30;;
19705;SDS011;10003;52.506;4.700;2024-03-17T03:21:47;0.70;;;0.70;;
19705;SDS011;10003;52.506;4.700;2024-03-17T03:24:15;5.47;;;1.53;;
19705;SDS011;10003;52.506;4.700;2024-03-17T03:26:44;3.17;;;2.70;;
19705;SDS011;10003;52.506;4.700;2024-03-17T03:29:14;0.80;;;0.80;;
19705;SDS011;10003;52.506;4.700;2024-03-17T03:31:43;0.70;;;0.70;;
19705;SDS011;10003;52.506;4.700;2024-03-17T03:34:13;0.80;;;0.80;;
19705;SDS011;10003;52.506;4.700;2024-03-17T03:36:41;3.70;;;1.90;;
19705;SDS011;10003;52.506;4.700;2024-03-17T03:39:08;1.47;;;1.37;;
19705;SDS011;10003;52.506;4.700;2024-03-17T03:41:37;2.33;;;1.70;;
19705;SDS011;10003;52.506;4.700;2024-03-17T03:44:05;2.90;;;2.10;;
19705;SDS011;10003;52.506;4.700;2024-03-17T03:46:33;1.17;;;0.93;;
19705;SDS011;10003;52.506;4.700;2024-03-17T03:49:02;6.27;;;2.70;;
19705;SDS011;10003;52.506;4.700;2024-03-17T03:51:30;2.43;;;2.23;;
19705;SDS011;10003;52.506;4.700;2024-03-17T03:53:57;3.40;;;2.97;;
19705;SDS011;10003;52.506;4.700;2024-03-17T03:56:25;7.07;;;2.20;;
19705;SDS011;10003;52.506;4.700;2024-03-17T03:58:52;2.80;;;2.30;;
19705;SDS011;10003;52.506;4.700;2024-03-17T04:01:20;2.60;;;2.43;;
19705;SDS011;10003;52.506;4.700;2024-03-17T04:03:48;1.70;;;1.60;;
19705;SDS011;10003;52.506;4.700;2024-03-17T04:06:17;2.63;;;2.33;;
19705;SDS011;10003;52.506;4.700;2024-03-17T04:08:44;3.47;;;3.13;;
19705;SDS011;10003;52.506;4.700;2024-03-17T04:11:12;3.27;;;2.80;;
19705;SDS011;10003;52.506;4.700;2024-03-17T04:13:39;2.93;;;2.70;;
19705;SDS011;10003;52.506;4.700;2024-03-17T04:16:07;4.03;;;3.73;;
19705;SDS011;10003;52.506;4.700;2024-03-17T04:18:35;5.17;;;3.57;;
19705;SDS011;10003;52.506;4.700;2024-03-17T04:21:05;2.43;;;2.27;;
19705;SDS011;10003;52.506;4.700;2024-03-17T04:23:35;1.93;;;1.73;;
19705;SDS011;10003;52.506;4.700;2024-03-17T04:26:03;0.90;;;0.90;;
19705;SDS011;10003;52.506;4.700;2024-03-17T04:28:32;4.77;;;3.60;;
19705;SDS011;10003;52.506;4.700;2024-03-17T04:31:04;5.37;;;3.73;;
19705;SDS011;10003;52.506;4.700;2024-03-17T04:33:32;5.10;;;4.00;;
19705;SDS011;10003;52.506;4.700;2024-03-17T04:36:00;1.40;;;1.40;;
19705;SDS011;10003;52.506;4.700;2024-03-17T04:38:28;2.20;;;2.00;;
19705;SDS011;10003;52.506;4.700;2024-03-17T04:40:57;1.37;;;1.27;;
19705;SDS011;10003;52.506;4.700;2024-03-17T04:43:30;1.63;;;1.63;;
19705;SDS011;10003;52.506;4.700;2024-03-17T04:46:02;2.13;;;1.93;;
19705;SDS011;10003;52.506;4.700;2024-03-17T04:48:32;1.37;;;1.27;;
19705;SDS011;10003;52.506;4.700;2024-03-17T04:51:02;3.67;;;1.57;;
19705;SDS011;10003;52.506;4.700;2024-03-17T04:53:30;3.07;;;2.80;;
19705;SDS011;10003;52.506;4.700;2024-03-17T04:56:00;1.70;;;1.60;;
19705;SDS011;10003;52.506;4.700;2024-03-17T04:58:30;8.40;;;1.90;;
19705;SDS011;10003;52.506;4.700;2024-03-17T05:00:57;0.80;;;0.80;;
19705;SDS011;10003;52.506;4.700;2024-03-17T05:03:25;2.03;;;1.93;;
19705;SDS011;10003;52.506;4.700;2024-03-17T05:05:58;1.10;;;1.10;;
19705;SDS011;10003;52.506;4.700;2024-03-17T05:08:27;7.10;;;4.57;;
19705;SDS011;10003;52.506;4.700;2024-03-17T05:10:58;5.43;;;4.00;;
19705;SDS011;10003;52.506;4.700;2024-03-17T05:13:31;1.10;;;1.10;;
19705;SDS011;10003;52.506;4.700;2024-03-17T05:15:59;8.70;;;5.00;;
19705;SDS011;10003;52.506;4.700;2024-03-17T05:18:27;5.70;;;5.33;;
19705;SDS011;10003;52.506;4.700;2024-03-17T05:20:58;5.90;;;4.93;;
19705;SDS011;10003;52.506;4.700;2024-03-17T05:23:26;4.00;;;2.87;;
19705;SDS011;10003;52.506;4.700;2024-03-17T05:25:54;3.63;;;2.87;;
19705;SDS011;10003;52.506;4.700;2024-03-17T05:28:22;2.10;;;1.97;;
19705;SDS011;10003;52.506;4.700;2024-03-17T05:30:51;0.70;;;0.70;;
19705;SDS011;10003;52.506;4.700;2024-03-17T05:33:19;0.83;;;0.83;;
19705;SDS011;10003;52.506;4.700;2024-03-17T05:35:48;3.83;;;3.13;;
19705;SDS011;10003;52.506;4.700;2024-03-17T05:38:18;2.07;;;1.70;;
19705;SDS011;10003;52.506;4.700;2024-03-17T05:40:53;2.07;;;1.97;;
19705;SDS011;10003;52.506;4.700;2024-03-17T05:43:21;6.00;;;4.70;;
19705;SDS011;10003;52.506;4.700;2024-03-17T05:45:49;3.57;;;3.33;;
19705;SDS011;10003;52.506;4.700;2024-03-17T05:48:18;4.17;;;3.77;;
19705;SDS011;10003;52.506;4.700;2024-03-17T05:50:46;5.70;;;4.93;;
19705;SDS011;10003;52.506;4.700;2024-03-17T05:53:14;2.77;;;2.53;;
19705;SDS011;10003;52.506;4.700;2024-03-17T05:55:41;5.00;;;3.33;;
19705;SDS011;10003;52.506;4.700;2024-03-17T05:58:08;3.93;;;3.57;;
19705;SDS011;10003;52.506;4.700;2024-03-17T06:00:36;5.83;;;4.10;;
19705;SDS011;10003;52.506;4.700;2024-03-17T06:03:04;12.40;;;2.63;;
19705;SDS011;10003;52.506;4.700;2024-03-17T06:05:33;8.53;;;6.57;;
19705;SDS011;10003;52.506;4.700;2024-03-17T06:08:01;3.43;;;3.13;;
19705;SDS011;10003;52.506;4.700;2024-03-17T06:10:30;8.90;;;6.37;;
19705;SDS011;10003;52.506;4.700;2024-03-17T06:12:57;2.53;;;2.30;;
19705;SDS011;10003;52.506;4.700;2024-03-17T06:15:25;2.03;;;1.83;;
19705;SDS011;10003;52.506;4.700;2024-03-17T06:17:53;5.57;;;3.43;;
19705;SDS011;10003;52.506;4.700;2024-03-17T06:20:21;4.67;;;3.43;;
19705;SDS011;10003;52.506;4.700;2024-03-17T06:22:51;2.37;;;2.03;;
19705;SDS011;10003;52.506;4.700;2024-03-17T06:25:18;5.07;;;3.90;;
19705;SDS011;10003;52.506;4.700;2024-03-17T06:27:49;1.27;;;1.23;;
19705;SDS011;10003;52.506;4.700;2024-03-17T06:30:16;3.50;;;1.17;;
19705;SDS011;10003;52.506;4.700;2024-03-17T06:32:45;10.53;;;7.87;;
19705;SDS011;10003;52.506;4.700;2024-03-17T06:35:13;5.93;;;4.90;;
19705;SDS011;10003;52.506;4.700;2024-03-17T06:37:41;1.30;;;1.20;;
19705;SDS011;10003;52.506;4.700;2024-03-17T06:40:11;1.27;;;1.27;;
19705;SDS011;10003;52.506;4.700;2024-03-17T06:42:39;2.43;;;2.30;;
19705;SDS011;10003;52.506;4.700;2024-03-17T06:45:06;2.23;;;2.03;;
19705;SDS011;10003;52.506;4.700;2024-03-17T06:47:34;12.17;;;6.40;;
19705;SDS011;10003;52.506;4.700;2024-03-17T06:50:02;5.73;;;4.13;;
19705;SDS011;10003;52.506;4.700;2024-03-17T06:52:29;7.70;;;3.90;;
19705;SDS011;10003;52.506;4.700;2024-03-17T06:54:57;5.47;;;4.40;;
19705;SDS011;10003;52.506;4.700;2024-03-17T06:57:27;6.63;;;4.93;;
19705;SDS011;10003;52.506;4.700;2024-03-17T06:59:54;6.23;;;5.60;;
19705;SDS011;10003;52.506;4.700;2024-03-17T07:02:22;5.43;;;4.80;;
19705;SDS011;10003;52.506;4.700;2024-03-17T07:04:49;7.00;;;5.50;;
19705;SDS011;10003;52.506;4.700;2024-03-17T07:07:17;10.43;;;7.33;;
19705;SDS011;10003;52.506;4.700;2024-03-17T07:09:46;6.70;;;4.87;;
19705;SDS011;10003;52.506;4.700;2024-03-17T07:12:17;1.37;;;1.27;;
19705;SDS011;10003;52.506;4.700;2024-03-17T07:14:46;6.87;;;4.13;;
19705;SDS011;10003;52.506;4.700;2024-03-17T07:17:16;4.90;;;4.27;;
19705;SDS011;10003;52.506;4.700;2024-03-17T07:19:47;1.70;;;1.60;;
19705;SDS011;10003;52.506;4.700;2024-03-17T07:22:16;2.77;;;2.57;;
19705;SDS011;10003;52.506;4.700;2024-03-17T07:24:49;4.47;;;3.50;;
19705;SDS011;10003;52.506;4.700;2024-03-17T07:27:21;1.03;;;1.03;;
19705;SDS011;10003;52.506;4.700;2024-03-17T07:29:49;1.53;;;1.53;;
19705;SDS011;10003;52.506;4.700;2024-03-17T07:32:17;2.47;;;2.37;;
19705;SDS011;10003;52.506;4.700;2024-03-17T07:34:45;2.80;;;2.60;;
19705;SDS011;10003;52.506;4.700;2024-03-17T07:37:12;2.30;;;2.20;;
19705;SDS011;10003;52.506;4.700;2024-03-17T07:39:40;10.93;;;6.70;;
19705;SDS011;10003;52.506;4.700;2024-03-17T07:42:07;5.33;;;3.70;;
19705;SDS011;10003;52.506;4.700;2024-03-17T07:44:35;4.20;;;3.83;;
19705;SDS011;10003;52.506;4.700;2024-03-17T07:47:04;7.13;;;6.43;;
19705;SDS011;10003;52.506;4.700;2024-03-17T07:49:32;9.40;;;7.80;;
19705;SDS011;10003;52.506;4.700;2024-03-17T07:52:00;12.87;;;9.10;;
19705;SDS011;10003;52.506;4.700;2024-03-17T07:54:27;13.60;;;9.33;;
19705;SDS011;10003;52.506;4.700;2024-03-17T07:56:55;10.97;;;7.00;;
19705;SDS011;10003;52.506;4.700;2024-03-17T07:59:22;5.97;;;4.23;;
19705;SDS011;10003;52.506;4.700;2024-03-17T08:01:50;15.67;;;8.23;;
19705;SDS011;10003;52.506;4.700;2024-03-17T08:04:19;6.30;;;5.20;;
19705;SDS011;10003;52.506;4.700;2024-03-17T08:06:47;9.77;;;8.23;;
19705;SDS011;10003;52.506;4.700;2024-03-17T08:09:14;10.40;;;8.90;;
19705;SDS011;10003;52.506;4.700;2024-03-17T08:11:44;14.53;;;9.43;;
19705;SDS011;10003;52.506;4.700;2024-03-17T08:14:12;11.07;;;9.60;;
19705;SDS011;10003;52.506;4.700;2024-03-17T08:16:40;9.73;;;8.70;;
19705;SDS011;10003;52.506;4.700;2024-03-17T08:19:07;11.53;;;8.47;;
19705;SDS011;10003;52.506;4.700;2024-03-17T08:21:36;12.07;;;10.83;;
19705;SDS011;10003;52.506;4.700;2024-03-17T08:24:04;11.53;;;9.53;;
19705;SDS011;10003;52.506;4.700;2024-03-17T08:26:32;10.30;;;8.73;;
19705;SDS011;10003;52.506;4.700;2024-03-17T08:28:59;13.37;;;9.23;;
19705;SDS011;10003;52.506;4.700;2024-03-17T08:31:27;10.33;;;8.60;;
19705;SDS011;10003;52.506;4.700;2024-03-17T08:33:54;9.90;;;8.47;;
19705;SDS011;10003;52.506;4.700;2024-03-17T08:36:22;7.40;;;6.53;;
19705;SDS011;10003;52.506;4.700;2024-03-17T08:38:51;10.87;;;9.83;;
19705;SDS011;10003;52.506;4.700;2024-03-17T08:41:20;11.43;;;10.23;;
19705;SDS011;10003;52.506;4.700;2024-03-17T08:43:47;6.93;;;5.77;;
19705;SDS011;10003;52.506;4.700;2024-03-17T08:46:17;11.97;;;10.63;;
19705;SDS011;10003;52.506;4.700;2024-03-17T08:48:45;9.77;;;8.57;;
19705;SDS011;10003;52.506;4.700;2024-03-17T08:51:12;5.13;;;4.67;;
19705;SDS011;10003;52.506;4.700;2024-03-17T08:53:40;9.50;;;7.90;;
19705;SDS011;10003;52.506;4.700;2024-03-17T08:56:09;10.03;;;8.53;;
19705;SDS011;10003;52.506;4.700;2024-03-17T08:58:36;11.40;;;9.07;;
19705;SDS011;10003;52.506;4.700;2024-03-17T09:01:04;9.03;;;8.13;;
19705;SDS011;10003;52.506;4.700;2024-03-17T09:03:32;12.77;;;8.37;;
19705;SDS011;10003;52.506;4.700;2024-03-17T09:06:00;9.43;;;7.37;;
19705;SDS011;10003;52.506;4.700;2024-03-17T09:08:26;7.23;;;6.50;;
19705;SDS011;10003;52.506;4.700;2024-03-17T09:10:54;9.90;;;7.93;;
19705;SDS011;10003;52.506;4.700;2024-03-17T09:13:24;7.93;;;6.57;;
19705;SDS011;10003;52.506;4.700;2024-03-17T09:15:52;7.77;;;6.70;;
19705;SDS011;10003;52.506;4.700;2024-03-17T09:18:20;13.00;;;9.63;;
19705;SDS011;10003;52.506;4.700;2024-03-17T09:20:55;11.13;;;10.03;;
19705;SDS011;10003;52.506;4.700;2024-03-17T09:23:22;10.07;;;9.07;;
19705;SDS011;10003;52.506;4.700;2024-03-17T09:25:57;8.97;;;6.97;;
19705;SDS011;10003;52.506;4.700;2024-03-17T09:28:27;4.37;;;4.03;;
19705;SDS011;10003;52.506;4.700;2024-03-17T09:30:55;3.47;;;3.13;;
19705;SDS011;10003;52.506;4.700;2024-03-17T09:33:23;7.00;;;6.33;;
19705;SDS011;10003;52.506;4.700;2024-03-17T09:35:54;8.87;;;6.17;;
19705;SDS011;10003;52.506;4.700;2024-03-17T09:38:22;10.67;;;8.40;;
19705;SDS011;10003;52.506;4.700;2024-03-17T09:40:50;9.87;;;8.23;;
19705;SDS011;10003;52.506;4.700;2024-03-17T09:43:18;8.70;;;7.63;;
19705;SDS011;10003;52.506;4.700;2024-03-17T09:45:48;10.77;;;7.23;;
19705;SDS011;10003;52.506;4.700;2024-03-17T09:48:16;8.77;;;7.07;;
19705;SDS011;10003;52.506;4.700;2024-03-17T09:50:48;10.43;;;9.43;;
19705;SDS011;10003;52.506;4.700;2024-03-17T09:53:22;6.50;;;5.07;;
19705;SDS011;10003;52.506;4.700;2024-03-17T09:55:53;10.67;;;7.53;;
19705;SDS011;10003;52.506;4.700;2024-03-17T09:58:23;5.73;;;4.53;;
19705;SDS011;10003;52.506;4.700;2024-03-17T10:00:52;9.20;;;8.30;;
19705;SDS011;10003;52.506;4.700;2024-03-17T10:06:02;8.43;;;7.13;;
19705;SDS011;10003;52.506;4.700;2024-03-17T10:08:30;8.67;;;7.63;;
19705;SDS011;10003;52.506;4.700;2024-03-17T10:10:59;9.47;;;7.57;;
19705;SDS011;10003;52.506;4.700;2024-03-17T10:13:27;9.83;;;7.20;;
19705;SDS011;10003;52.506;4.700;2024-03-17T10:15:56;11.20;;;7.20;;
19705;SDS011;10003;52.506;4.700;2024-03-17T10:18:23;11.70;;;10.20;;
19705;SDS011;10003;52.506;4.700;2024-03-17T10:20:51;9.13;;;8.23;;
19705;SDS011;10003;52.506;4.700;2024-03-17T10:23:21;7.20;;;3.43;;
19705;SDS011;10003;52.506;4.700;2024-03-17T10:25:49;5.33;;;4.83;;
19705;SDS011;10003;52.506;4.700;2024-03-17T10:28:17;9.63;;;8.70;;
19705;SDS011;10003;52.506;4.700;2024-03-17T10:30:57;5.30;;;2.93;;
19705;SDS011;10003;52.506;4.700;2024-03-17T10:33:25;3.93;;;3.40;;
19705;SDS011;10003;52.506;4.700;2024-03-17T10:36:00;8.80;;;8.10;;
19705;SDS011;10003;52.506;4.700;2024-03-17T10:38:28;8.73;;;7.83;;
19705;SDS011;10003;52.506;4.700;2024-03-17T10:40:55;7.77;;;5.97;;
19705;SDS011;10003;52.506;4.700;2024-03-17T10:43:23;7.73;;;5.63;;
19705;SDS011;10003;52.506;4.700;2024-03-17T10:45:52;9.97;;;8.37;;
19705;SDS011;10003;52.506;4.700;2024-03-17T10:48:22;6.43;;;4.77;;
19705;SDS011;10003;52.506;4.700;2024-03-17T10:50:53;6.20;;;4.90;;
19705;SDS011;10003;52.506;4.700;2024-03-17T10:53:23;5.97;;;5.47;;
19705;SDS011;10003;52.506;4.700;2024-03-17T10:55:56;10.20;;;8.50;;
19705;SDS011;10003;52.506;4.700;2024-03-17T10:58:28;11.03;;;8.63;;
19705;SDS011;10003;52.506;4.700;2024-03-17T11:01:00;11.47;;;10.17;;
19705;SDS011;10003;52.506;4.700;2024-03-17T11:03:35;9.57;;;6.50;;
19705;SDS011;10003;52.506;4.700;2024-03-17T11:06:03;9.40;;;8.43;;
19705;SDS011;10003;52.506;4.700;2024-03-17T11:08:32;15.60;;;7.80;;
19705;SDS011;10003;52.506;4.700;2024-03-17T11:11:00;11.93;;;8.17;;
19705;SDS011;10003;52.506;4.700;2024-03-17T11:13:29;9.40;;;8.07;;
19705;SDS011;10003;52.506;4.700;2024-03-17T11:15:57;5.97;;;5.07;;
19705;SDS011;10003;52.506;4.700;2024-03-17T11:18:38;8.13;;;4.67;;
19705;SDS011;10003;52.506;4.700;2024-03-17T11:21:06;11.20;;;8.37;;
19705;SDS011;10003;52.506;4.700;2024-03-17T11:23:36;6.93;;;6.23;;
19705;SDS011;10003;52.506;4.700;2024-03-17T11:26:04;8.07;;;6.90;;
19705;SDS011;10003;52.506;4.700;2024-03-17T11:28:47;8.13;;;7.33;;
19705;SDS011;10003;52.506;4.700;2024-03-17T11:34:04;8.77;;;7.73;;
19705;SDS011;10003;52.506;4.700;2024-03-17T11:36:33;8.47;;;7.43;;
19705;SDS011;10003;52.506;4.700;2024-03-17T11:39:02;7.77;;;6.17;;
19705;SDS011;10003;52.506;4.700;2024-03-17T11:41:35;13.73;;;9.73;;
19705;SDS011;10003;52.506;4.700;2024-03-17T11:46:50;8.67;;;5.50;;
19705;SDS011;10003;52.506;4.700;2024-03-17T11:49:18;7.70;;;6.13;;
19705;SDS011;10003;52.506;4.700;2024-03-17T11:51:48;8.63;;;6.10;;
19705;SDS011;10003;52.506;4.700;2024-03-17T11:54:15;13.57;;;9.93;;
19705;SDS011;10003;52.506;4.700;2024-03-17T11:56:45;7.63;;;5.83;;
19705;SDS011;10003;52.506;4.700;2024-03-17T11:59:12;8.27;;;6.17;;
19705;SDS011;10003;52.506;4.700;2024-03-17T12:01:39;9.30;;;8.17;;
19705;SDS011;10003;52.506;4.700;2024-03-17T12:04:07;12.20;;;11.00;;
19705;SDS011;10003;52.506;4.700;2024-03-17T12:06:35;9.80;;;7.13;;
19705;SDS011;10003;52.506;4.700;2024-03-17T12:09:10;8.43;;;7.60;;
19705;SDS011;10003;52.506;4.700;2024-03-17T12:11:37;6.60;;;4.20;;
19705;SDS011;10003;52.506;4.700;2024-03-17T12:14:09;6.33;;;5.10;;
19705;SDS011;10003;52.506;4.700;2024-03-17T12:16:46;5.77;;;4.80;;
19705;SDS011;10003;52.506;4.700;2024-03-17T12:19:14;7.67;;;6.30;;
19705;SDS011;10003;52.506;4.700;2024-03-17T12:21:44;2.70;;;2.40;;
19705;SDS011;10003;52.506;4.700;2024-03-17T12:24:14;6.17;;;4.50;;
19705;SDS011;10003;52.506;4.700;2024-03-17T12:26:42;3.43;;;3.13;;
19705;SDS011;10003;52.506;4.700;2024-03-17T12:32:05;5.43;;;4.60;;
19705;SDS011;10003;52.506;4.700;2024-03-17T12:34:33;11.17;;;7.67;;
19705;SDS011;10003;52.506;4.700;2024-03-17T12:37:01;7.40;;;6.00;;
19705;SDS011;10003;52.506;4.700;2024-03-17T12:39:29;3.40;;;3.17;;
19705;SDS011;10003;52.506;4.700;2024-03-17T12:42:03;4.30;;;3.37;;
19705;SDS011;10003;52.506;4.700;2024-03-17T12:44:32;8.07;;;6.10;;
19705;SDS011;10003;52.506;4.700;2024-03-17T12:46:59;9.93;;;8.63;;
19705;SDS011;10003;52.506;4.700;2024-03-17T12:49:28;9.30;;;6.90;;
19705;SDS011;10003;52.506;4.700;2024-03-17T12:51:54;8.30;;;7.30;;
19705;SDS011;10003;52.506;4.700;2024-03-17T12:54:26;11.40;;;9.30;;
19705;SDS011;10003;52.506;4.700;2024-03-17T12:57:03;10.63;;;8.57;;
19705;SDS011;10003;52.506;4.700;2024-03-17T12:59:49;6.70;;;6.03;;
19705;SDS011;10003;52.506;4.700;2024-03-17T13:02:33;8.57;;;5.73;;
19705;SDS011;10003;52.506;4.700;2024-03-17T13:05:10;8.00;;;7.20;;
19705;SDS011;10003;52.506;4.700;2024-03-17T13:07:40;6.63;;;5.83;;
19705;SDS011;10003;52.506;4.700;2024-03-17T13:10:10;10.17;;;8.83;;
19705;SDS011;10003;52.506;4.700;2024-03-17T13:12:38;9.93;;;8.23;;
19705;SDS011;10003;52.506;4.700;2024-03-17T13:15:07;8.50;;;7.70;;
19705;SDS011;10003;52.506;4.700;2024-03-17T13:17:37;8.40;;;7.53;;
19705;SDS011;10003;52.506;4.700;2024-03-17T13:20:05;10.30;;;9.03;;
19705;SDS011;10003;52.506;4.700;2024-03-17T13:22:37;14.43;;;10.97;;
19705;SDS011;10003;52.506;4.700;2024-03-17T13:25:07;11.33;;;6.90;;
19705;SDS011;10003;52.506;4.700;2024-03-17T13:27:38;12.10;;;7.67;;
19705;SDS011;10003;52.506;4.700;2024-03-17T13:30:07;11.57;;;8.60;;
19705;SDS011;10003;52.506;4.700;2024-03-17T13:32:35;9.53;;;7.73;;
19705;SDS011;10003;52.506;4.700;2024-03-17T13:35:03;7.47;;;6.50;;
19705;SDS011;10003;52.506;4.700;2024-03-17T13:37:30;9.53;;;6.57;;
19705;SDS011;10003;52.506;4.700;2024-03-17T13:39:58;10.53;;;7.23;;
19705;SDS011;10003;52.506;4.700;2024-03-17T13:42:28;9.63;;;2.07;;
19705;SDS011;10003;52.506;4.700;2024-03-17T13:44:57;2.00;;;1.90;;
19705;SDS011;10003;52.506;4.700;2024-03-17T13:47:25;6.20;;;5.50;;
19705;SDS011;10003;52.506;4.700;2024-03-17T13:49:52;6.17;;;4.93;;
19705;SDS011;10003;52.506;4.700;2024-03-17T13:52:20;8.93;;;7.70;;
19705;SDS011;10003;52.506;4.700;2024-03-17T13:54:50;9.40;;;7.80;;
19705;SDS011;10003;52.506;4.700;2024-03-17T13:57:18;8.27;;;6.70;;
19705;SDS011;10003;52.506;4.700;2024-03-17T13:59:45;10.10;;;6.97;;
19705;SDS011;10003;52.506;4.700;2024-03-17T14:02:15;9.87;;;7.07;;
19705;SDS011;10003;52.506;4.700;2024-03-17T14:04:44;8.07;;;6.97;;
19705;SDS011;10003;52.506;4.700;2024-03-17T14:07:12;10.23;;;7.40;;
19705;SDS011;10003;52.506;4.700;2024-03-17T14:09:40;7.70;;;4.87;;
19705;SDS011;10003;52.506;4.700;2024-03-17T14:12:08;4.53;;;4.13;;
19705;SDS011;10003;52.506;4.700;2024-03-17T14:14:36;8.33;;;6.67;;
19705;SDS011;10003;52.506;4.700;2024-03-17T14:17:03;7.70;;;5.30;;
19705;SDS011;10003;52.506;4.700;2024-03-17T14:19:33;4.87;;;2.77;;
19705;SDS011;10003;52.506;4.700;2024-03-17T14:22:00;10.67;;;7.13;;
19705;SDS011;10003;52.506;4.700;2024-03-17T14:24:28;7.63;;;6.87;;
19705;SDS011;10003;52.506;4.700;2024-03-17T14:26:56;12.50;;;7.33;;
19705;SDS011;10003;52.506;4.700;2024-03-17T14:29:23;8.80;;;5.80;;
19705;SDS011;10003;52.506;4.700;2024-03-17T14:31:51;6.53;;;5.87;;
19705;SDS011;10003;52.506;4.700;2024-03-17T14:34:18;9.73;;;7.87;;
19705;SDS011;10003;52.506;4.700;2024-03-17T14:36:47;3.93;;;3.63;;
19705;SDS011;10003;52.506;4.700;2024-03-17T14:39:15;3.30;;;2.97;;
19705;SDS011;10003;52.506;4.700;2024-03-17T14:41:42;11.77;;;9.03;;
19705;SDS011;10003;52.506;4.700;2024-03-17T14:44:10;9.60;;;8.10;;
19705;SDS011;10003;52.506;4.700;2024-03-17T14:46:38;2.27;;;2.07;;
19705;SDS011;10003;52.506;4.700;2024-03-17T14:49:06;3.30;;;3.10;;
19705;SDS011;10003;52.506;4.700;2024-03-17T14:51:34;4.87;;;3.87;;
19705;SDS011;10003;52.506;4.700;2024-03-17T14:54:03;6.70;;;4.70;;
19705;SDS011;10003;52.506;4.700;2024-03-17T14:56:35;10.57;;;7.90;;
19705;SDS011;10003;52.506;4.700;2024-03-17T14:59:03;6.17;;;5.57;;
19705;SDS011;10003;52.506;4.700;2024-03-17T15:01:31;10.47;;;8.70;;
19705;SDS011;10003;52.506;4.700;2024-03-17T15:03:59;10.17;;;7.20;;
19705;SDS011;10003;52.506;4.700;2024-03-17T15:06:29;9.73;;;6.40;;